Time;durP1;ratioP1;P1;durP2;ratioP2;P2;SDS_P1;SDS_P2;PMS_P1;PMS_P2;Temp;Humidity;BMP_temperature;BMP_pressure;BME280_temperature;BME280_humidity;BME280_pressure;Samples;Min_cycle;Max_cycle;Signal;HPM_P1;HPM_P2
2022/03/18 00:01:18;;;;;;;13.90;3.30;;;6.40;99.90;;;;;;5012389;28;20072;-34
2022/03/18 00:03:44;;;;;;;16.33;3.53;;;6.40;99.90;;;;;;5012717;28;20021;-34
2022/03/18 00:06:12;;;;;;;8.90;3.35;;;6.40;99.90;;;;;;5012298;28;20060;-34
2022/03/18 00:08:38;;;;;;;6.32;3.30;;;6.40;99.90;;;;;;5013711;28;20036;-37
2022/03/18 00:11:03;;;;;;;11.73;3.13;;;6.40;99.90;;;;;;5015699;28;20030;-34
2022/03/18 00:13:29;;;;;;;12.40;3.10;;;6.40;99.90;;;;;;4997956;28;20124;-34
2022/03/18 00:15:56;;;;;;;7.97;3.35;;;6.40;99.90;;;;;;4998376;28;20081;-31
2022/03/18 00:18:22;;;;;;;12.20;3.10;;;6.30;99.90;;;;;;5016127;28;20477;-34
2022/03/18 00:20:48;;;;;;;11.20;3.30;;;6.30;99.90;;;;;;5015774;28;20025;-38
2022/03/18 00:23:13;;;;;;;18.02;3.30;;;6.30;99.90;;;;;;5016084;28;20021;-34
2022/03/18 00:25:39;;;;;;;5.93;3.17;;;6.30;99.90;;;;;;5015168;28;20026;-47
2022/03/18 00:28:05;;;;;;;14.00;3.60;;;6.30;99.90;;;;;;5015652;28;20026;-35
2022/03/18 00:30:31;;;;;;;7.97;4.13;;;6.20;99.90;;;;;;5015623;28;20030;-31
2022/03/18 00:32:56;;;;;;;6.38;3.65;;;6.20;99.90;;;;;;5015420;28;20030;-40
2022/03/18 00:35:23;;;;;;;10.68;3.10;;;6.10;99.90;;;;;;5015649;28;20066;-30
2022/03/18 00:37:49;;;;;;;9.50;4.00;;;6.10;99.90;;;;;;5015861;28;20073;-31
2022/03/18 00:40:15;;;;;;;14.32;3.45;;;6.10;99.90;;;;;;5015664;28;20069;-38
2022/03/18 00:42:40;;;;;;;9.70;3.72;;;6.20;99.90;;;;;;5015689;28;20448;-45
2022/03/18 00:45:06;;;;;;;13.57;4.10;;;6.20;99.90;;;;;;5015545;28;20022;-36
2022/03/18 00:53:00;;;;;;;8.98;3.58;;;6.10;99.90;;;;;;5015774;28;20137;-39
2022/03/18 00:55:26;;;;;;;10.77;3.85;;;6.10;99.90;;;;;;5015478;28;20104;-41
2022/03/18 00:57:51;;;;;;;16.70;3.85;;;6.10;99.90;;;;;;5002380;28;20026;-59
2022/03/18 01:00:17;;;;;;;14.68;3.78;;;6.10;99.90;;;;;;4997761;28;20109;-37
2022/03/18 01:02:43;;;;;;;15.88;3.50;;;6.00;99.90;;;;;;5014978;28;20041;-37
2022/03/18 01:05:08;;;;;;;6.97;3.10;;;6.00;99.90;;;;;;5015319;28;20496;-38
2022/03/18 01:07:34;;;;;;;13.15;3.00;;;5.90;99.90;;;;;;5015302;28;20022;-40
2022/03/18 01:10:00;;;;;;;4.15;2.53;;;5.90;99.90;;;;;;5015122;28;20054;-40
2022/03/18 01:12:26;;;;;;;6.60;3.78;;;5.90;99.90;;;;;;5015119;28;20469;-40
2022/03/18 01:14:51;;;;;;;13.02;3.60;;;5.90;99.90;;;;;;5015097;28;20045;-32
2022/03/18 01:17:17;;;;;;;11.63;3.97;;;5.90;99.90;;;;;;5014882;28;20052;-32
2022/03/18 01:19:43;;;;;;;11.70;3.95;;;5.90;99.90;;;;;;5014119;28;20428;-31
2022/03/18 01:22:09;;;;;;;9.45;3.42;;;5.90;99.90;;;;;;5014950;28;20022;-36
2022/03/18 01:24:36;;;;;;;9.52;3.83;;;5.90;99.90;;;;;;5014705;28;20616;-30
2022/03/18 01:27:04;;;;;;;9.10;4.47;;;5.90;99.90;;;;;;5014761;28;20064;-34
2022/03/18 01:29:29;;;;;;;16.52;4.40;;;5.90;99.90;;;;;;5014809;28;20026;-49
2022/03/18 01:31:55;;;;;;;17.70;5.40;;;5.80;99.90;;;;;;5014810;28;20057;-39
2022/03/18 01:34:20;;;;;;;11.00;4.40;;;5.80;99.90;;;;;;5014693;28;20049;-39
2022/03/18 01:36:46;;;;;;;8.55;4.38;;;5.80;99.90;;;;;;5014913;28;20071;-39
2022/03/18 01:39:12;;;;;;;11.82;3.97;;;5.80;99.90;;;;;;5014750;28;20026;-38
2022/03/18 01:41:39;;;;;;;12.40;5.47;;;5.80;99.90;;;;;;5014526;28;20109;-39
2022/03/18 01:44:12;;;;;;;11.52;4.57;;;5.80;99.90;;;;;;5014861;28;20470;-39
2022/03/18 01:46:38;;;;;;;16.27;5.50;;;5.80;99.90;;;;;;5014625;28;20084;-39
2022/03/18 01:49:05;;;;;;;8.13;4.45;;;5.80;99.90;;;;;;5014507;28;20022;-39
2022/03/18 01:51:31;;;;;;;12.45;4.82;;;5.80;99.90;;;;;;4996838;28;20076;-53
2022/03/18 01:56:41;;;;;;;13.90;4.32;;;5.70;99.90;;;;;;5013756;28;20052;-40
2022/03/18 01:59:07;;;;;;;10.90;4.40;;;5.70;99.90;;;;;;5013197;28;20049;-43
2022/03/18 02:01:34;;;;;;;12.68;5.63;;;5.60;99.90;;;;;;5013724;28;20030;-45
2022/03/18 02:03:59;;;;;;;8.88;4.50;;;5.60;99.90;;;;;;5013398;28;20052;-37
2022/03/18 02:06:25;;;;;;;12.65;4.25;;;5.50;99.90;;;;;;5013532;28;20029;-39
2022/03/18 02:08:51;;;;;;;11.98;4.60;;;5.50;99.90;;;;;;5013261;28;20055;-52
2022/03/18 02:11:16;;;;;;;10.75;4.75;;;5.40;99.90;;;;;;5013319;28;20034;-39
2022/03/18 02:13:42;;;;;;;16.85;5.13;;;5.40;99.90;;;;;;4995535;28;20497;-31
2022/03/18 02:16:07;;;;;;;13.27;4.40;;;5.40;99.90;;;;;;5013438;28;20033;-30
2022/03/18 02:18:33;;;;;;;16.75;4.88;;;5.40;99.90;;;;;;4996136;28;20036;-30
2022/03/18 02:20:58;;;;;;;16.10;5.75;;;5.40;99.90;;;;;;5013937;28;20160;-30
2022/03/18 02:23:24;;;;;;;11.82;5.45;;;5.40;99.90;;;;;;5013282;28;20481;-31
2022/03/18 02:25:50;;;;;;;13.40;5.05;;;5.40;99.90;;;;;;4995729;28;20077;-33
2022/03/18 02:28:16;;;;;;;7.65;4.68;;;5.50;99.90;;;;;;5013756;28;20041;-31
2022/03/18 02:30:41;;;;;;;9.60;4.68;;;5.50;99.90;;;;;;5013389;28;20034;-31
2022/03/18 02:33:07;;;;;;;10.27;4.93;;;5.50;99.90;;;;;;5013722;28;20025;-36
2022/03/18 02:35:33;;;;;;;15.93;5.00;;;5.40;99.90;;;;;;5013672;28;20061;-31
2022/03/18 02:38:00;;;;;;;8.95;4.93;;;5.40;99.90;;;;;;5012435;28;20112;-33
2022/03/18 02:40:26;;;;;;;19.20;6.68;;;5.40;99.90;;;;;;5012908;28;20030;-31
2022/03/18 02:42:52;;;;;;;10.75;5.43;;;5.40;99.90;;;;;;5013561;28;20032;-34
2022/03/18 02:45:18;;;;;;;11.98;5.03;;;5.40;99.90;;;;;;5013547;28;20520;-34
2022/03/18 02:47:44;;;;;;;8.13;4.45;;;5.40;99.90;;;;;;5013419;28;20390;-32
2022/03/18 02:50:10;;;;;;;15.80;5.93;;;5.30;99.90;;;;;;5013671;28;20057;-30
2022/03/18 02:52:36;;;;;;;16.40;4.50;;;5.30;99.90;;;;;;5013426;28;20061;-36
2022/03/18 02:55:02;;;;;;;10.05;5.18;;;5.30;99.90;;;;;;5013204;28;20025;-37
2022/03/18 02:57:28;;;;;;;9.63;4.20;;;5.30;99.90;;;;;;5012498;28;20544;-31
2022/03/18 02:59:54;;;;;;;11.23;5.20;;;5.40;99.90;;;;;;5013515;28;20389;-38
2022/03/18 03:02:19;;;;;;;11.63;5.57;;;5.40;99.90;;;;;;5012851;28;20046;-35
2022/03/18 03:10:13;;;;;;;8.13;4.47;;;5.40;99.90;;;;;;5013519;28;20068;-39
2022/03/18 03:12:42;;;;;;;10.80;4.55;;;5.40;99.90;;;;;;5013323;28;20061;-38
2022/03/18 03:15:08;;;;;;;13.60;4.72;;;5.30;99.90;;;;;;5013006;28;20092;-37
2022/03/18 03:17:33;;;;;;;11.02;4.82;;;5.20;99.90;;;;;;5012584;28;20052;-30
2022/03/18 03:19:59;;;;;;;14.50;4.95;;;5.20;99.90;;;;;;5012772;28;20030;-31
2022/03/18 03:22:25;;;;;;;12.90;4.68;;;5.20;99.90;;;;;;5013075;28;20085;-29
2022/03/18 03:24:50;;;;;;;11.07;4.50;;;5.10;99.90;;;;;;5012268;28;20022;-31
2022/03/18 03:27:17;;;;;;;9.93;4.53;;;5.10;99.90;;;;;;5012700;28;20048;-31
2022/03/18 03:29:43;;;;;;;17.23;5.30;;;5.10;99.90;;;;;;5012509;28;20036;-31
2022/03/18 03:32:08;;;;;;;8.30;4.43;;;5.10;99.90;;;;;;5012834;28;20105;-30
2022/03/18 03:34:35;;;;;;;9.20;4.25;;;5.20;99.90;;;;;;5012662;28;20401;-38
2022/03/18 03:37:01;;;;;;;9.65;4.38;;;5.20;99.90;;;;;;5012084;28;20448;-37
2022/03/18 03:39:26;;;;;;;14.85;5.35;;;5.20;99.90;;;;;;5013198;28;20057;-38
2022/03/18 03:41:52;;;;;;;13.68;4.63;;;5.10;99.90;;;;;;5013020;28;20097;-52
2022/03/18 03:44:18;;;;;;;11.80;5.13;;;5.10;99.90;;;;;;5015553;28;20076;-39
2022/03/18 03:46:44;;;;;;;12.82;4.63;;;5.10;99.90;;;;;;5017052;28;20466;-39
2022/03/18 03:49:09;;;;;;;12.20;4.93;;;5.10;99.90;;;;;;4998879;28;20038;-38
2022/03/18 03:51:35;;;;;;;14.10;4.75;;;5.10;99.90;;;;;;5016657;28;20037;-40
2022/03/18 03:54:01;;;;;;;13.25;4.82;;;5.10;99.90;;;;;;5016451;28;20477;-62
2022/03/18 03:56:26;;;;;;;11.45;5.20;;;5.20;99.90;;;;;;5016558;28;20058;-37
2022/03/18 03:58:52;;;;;;;14.00;4.88;;;5.20;99.90;;;;;;4998572;28;20045;-37
2022/03/18 04:01:17;;;;;;;13.70;5.00;;;5.20;99.90;;;;;;4998972;28;20014;-39
2022/03/18 04:03:45;;;;;;;10.98;4.20;;;5.10;99.90;;;;;;5016145;28;20520;-38
2022/03/18 04:06:11;;;;;;;8.68;4.07;;;5.10;99.90;;;;;;5016461;28;20474;-39
2022/03/18 04:08:37;;;;;;;12.30;5.10;;;5.10;99.90;;;;;;5016340;28;20026;-38
2022/03/18 04:11:02;;;;;;;18.20;4.88;;;5.00;99.90;;;;;;5016256;28;20037;-39
2022/03/18 04:13:28;;;;;;;13.27;4.72;;;5.00;99.90;;;;;;5016203;28;20033;-39
2022/03/18 04:15:54;;;;;;;16.50;4.90;;;4.90;99.90;;;;;;5016075;28;20500;-39
2022/03/18 04:18:19;;;;;;;11.95;5.18;;;4.90;99.90;;;;;;5016095;28;20034;-39
2022/03/18 04:20:45;;;;;;;13.68;4.93;;;4.90;99.90;;;;;;5016087;28;20496;-40
2022/03/18 04:23:12;;;;;;;7.43;3.70;;;4.80;99.90;;;;;;5016324;28;20440;-42
2022/03/18 04:25:40;;;;;;;10.68;4.43;;;4.80;99.90;;;;;;5015767;28;20026;-38
2022/03/18 04:28:05;;;;;;;9.32;3.97;;;4.80;99.90;;;;;;5016285;28;20489;-39
2022/03/18 04:30:31;;;;;;;11.98;4.20;;;4.80;99.90;;;;;;5015870;28;20087;-39
2022/03/18 04:32:57;;;;;;;5.90;4.00;;;4.80;99.90;;;;;;5015850;28;20042;-37
2022/03/18 04:35:23;;;;;;;6.18;3.83;;;4.80;99.90;;;;;;5015262;28;20032;-38
2022/03/18 04:37:49;;;;;;;8.73;4.25;;;4.80;99.90;;;;;;4997638;28;20562;-38
2022/03/18 04:40:15;;;;;;;11.38;4.05;;;4.80;99.90;;;;;;5015357;28;20025;-38
2022/03/18 04:42:42;;;;;;;9.13;4.18;;;4.70;99.90;;;;;;4998060;28;20022;-38
2022/03/18 04:45:08;;;;;;;15.63;4.40;;;4.60;99.90;;;;;;5015396;28;20381;-56
2022/03/18 04:47:35;;;;;;;11.20;4.85;;;4.60;99.90;;;;;;5015093;28;20091;-38
2022/03/18 04:50:02;;;;;;;4.38;3.20;;;4.60;99.90;;;;;;5015564;28;20026;-39
2022/03/18 04:52:28;;;;;;;6.63;3.65;;;4.60;99.90;;;;;;4997558;28;20504;-40
2022/03/18 04:54:53;;;;;;;10.32;3.30;;;4.60;99.90;;;;;;5015297;28;20523;-38
2022/03/18 04:57:19;;;;;;;9.32;4.50;;;4.60;99.90;;;;;;5015667;28;20030;-39
2022/03/18 04:59:47;;;;;;;11.43;4.57;;;4.70;99.90;;;;;;5015325;28;20030;-38
2022/03/18 05:02:14;;;;;;;7.68;3.67;;;4.60;99.90;;;;;;5013777;28;20141;-38
2022/03/18 05:04:44;;;;;;;11.70;4.15;;;4.60;99.90;;;;;;5015247;28;20036;-39
2022/03/18 05:07:11;;;;;;;8.68;3.97;;;4.60;99.90;;;;;;5015550;28;20060;-39
2022/03/18 05:09:38;;;;;;;5.50;2.97;;;4.60;99.90;;;;;;5015106;28;20113;-38
2022/03/18 05:12:06;;;;;;;6.82;3.88;;;4.50;99.90;;;;;;5015233;28;20362;-39
2022/03/18 05:14:33;;;;;;;10.05;3.72;;;4.50;99.90;;;;;;4997139;28;20042;-39
2022/03/18 05:16:59;;;;;;;13.63;4.07;;;4.40;99.90;;;;;;5015447;28;20464;-38
2022/03/18 05:19:24;;;;;;;10.13;4.07;;;4.40;99.90;;;;;;5014915;28;20026;-39
2022/03/18 05:21:50;;;;;;;12.27;4.22;;;4.30;99.90;;;;;;5014750;28;20034;-37
2022/03/18 05:24:16;;;;;;;11.70;4.63;;;4.30;99.90;;;;;;5014846;28;20038;-39
2022/03/18 05:26:42;;;;;;;7.55;3.50;;;4.30;99.90;;;;;;5014770;28;20029;-38
2022/03/18 05:29:07;;;;;;;8.98;4.75;;;4.30;99.90;;;;;;5014954;28;20041;-38
2022/03/18 05:31:35;;;;;;;9.18;3.72;;;4.30;99.90;;;;;;5014882;28;20034;-39
2022/03/18 05:34:00;;;;;;;7.82;3.92;;;4.30;99.90;;;;;;5014906;28;20152;-39
2022/03/18 05:36:26;;;;;;;9.95;4.10;;;4.30;99.90;;;;;;5014651;28;20053;-40
2022/03/18 05:38:52;;;;;;;7.80;4.47;;;4.30;99.90;;;;;;5014935;28;20033;-39
2022/03/18 05:41:17;;;;;;;11.88;4.53;;;4.30;99.90;;;;;;5014632;28;20428;-31
2022/03/18 05:43:44;;;;;;;13.38;4.15;;;4.30;99.90;;;;;;5014262;28;20105;-30
2022/03/18 05:46:11;;;;;;;11.73;4.63;;;4.30;99.90;;;;;;5014698;28;20401;-47
2022/03/18 05:48:37;;;;;;;12.13;4.03;;;4.30;99.90;;;;;;5014529;28;20029;-39
2022/03/18 05:51:03;;;;;;;6.93;3.67;;;4.20;99.90;;;;;;4996874;28;20478;-38
2022/03/18 05:53:29;;;;;;;18.58;5.20;;;4.20;99.90;;;;;;5012664;28;20092;-41
2022/03/18 05:58:41;;;;;;;10.85;4.45;;;4.20;99.90;;;;;;5014336;28;20120;-43
2022/03/18 06:01:07;;;;;;;10.95;4.60;;;4.20;99.90;;;;;;5014394;28;20389;-33
2022/03/18 06:03:33;;;;;;;11.77;4.13;;;4.10;99.90;;;;;;5013585;28;20042;-34
2022/03/18 06:05:59;;;;;;;14.23;4.72;;;4.20;99.90;;;;;;5013128;28;20033;-30
2022/03/18 06:13:53;;;;;;;11.13;4.18;;;4.20;99.90;;;;;;5012499;28;20060;-37
2022/03/18 06:16:19;;;;;;;10.57;4.75;;;4.20;99.90;;;;;;5012863;28;20017;-39
2022/03/18 06:18:44;;;;;;;14.32;4.75;;;4.30;99.90;;;;;;5013926;28;20112;-38
2022/03/18 06:21:12;;;;;;;12.15;4.95;;;4.30;99.90;;;;;;4996081;28;20038;-39
2022/03/18 06:23:37;;;;;;;12.07;5.22;;;4.40;99.90;;;;;;5013934;28;20076;-39
2022/03/18 06:26:03;;;;;;;14.75;6.20;;;4.50;99.90;;;;;;5013613;28;20466;-38
2022/03/18 06:28:31;;;;;;;14.25;5.78;;;4.60;99.90;;;;;;5013806;28;20025;-37
2022/03/18 06:30:57;;;;;;;15.13;5.43;;;4.70;99.90;;;;;;5013824;28;20068;-37
2022/03/18 06:33:22;;;;;;;10.98;5.03;;;4.90;99.90;;;;;;5013786;28;20485;-39
2022/03/18 06:35:48;;;;;;;11.60;4.82;;;4.90;99.90;;;;;;5013508;28;20030;-38
2022/03/18 06:38:14;;;;;;;11.48;4.88;;;4.90;99.90;;;;;;5011470;28;20032;-38
2022/03/18 06:40:40;;;;;;;14.48;5.22;;;5.00;99.90;;;;;;5013646;28;20018;-39
2022/03/18 06:43:06;;;;;;;16.15;5.70;;;5.10;99.90;;;;;;5013564;28;20034;-41
2022/03/18 06:45:31;;;;;;;22.48;6.10;;;5.10;99.90;;;;;;5013262;28;20022;-39
2022/03/18 06:47:57;;;;;;;11.85;5.57;;;5.20;99.90;;;;;;5013536;28;20041;-32
2022/03/18 06:50:24;;;;;;;17.20;6.05;;;5.30;99.90;;;;;;5013492;28;20026;-35
2022/03/18 06:52:50;;;;;;;15.50;5.78;;;5.40;99.90;;;;;;5013385;28;20034;-56
2022/03/18 06:55:16;;;;;;;12.90;4.85;;;5.50;99.90;;;;;;5013155;28;20193;-33
2022/03/18 06:57:44;;;;;;;12.18;5.43;;;5.60;99.90;;;;;;5013251;28;20030;-33
2022/03/18 07:00:10;;;;;;;14.43;5.20;;;5.60;99.90;;;;;;5013395;28;20060;-31
2022/03/18 07:02:37;;;;;;;11.15;4.72;;;5.70;99.90;;;;;;4994738;28;20034;-31
2022/03/18 07:05:04;;;;;;;13.07;5.63;;;5.90;99.90;;;;;;5013491;28;20492;-35
2022/03/18 07:07:29;;;;;;;9.25;6.20;;;6.00;99.90;;;;;;5013196;28;20057;-32
2022/03/18 07:09:55;;;;;;;14.40;5.82;;;6.10;99.90;;;;;;5000447;28;20066;-31
2022/03/18 07:12:21;;;;;;;16.75;6.43;;;6.30;99.90;;;;;;5013083;28;20326;-31
2022/03/18 07:14:46;;;;;;;18.80;7.60;;;6.40;99.90;;;;;;5012948;28;20022;-31
2022/03/18 07:19:56;;;;;;;15.50;6.63;;;6.70;99.90;;;;;;5016210;28;20100;-33
2022/03/18 07:22:24;;;;;;;14.77;6.68;;;6.90;99.90;;;;;;5016543;28;20026;-34
2022/03/18 07:24:50;;;;;;;20.23;6.43;;;7.00;99.90;;;;;;5016916;28;20478;-33
2022/03/18 07:27:16;;;;;;;20.13;6.40;;;7.10;99.90;;;;;;5016597;28;20114;-34
2022/03/18 07:29:42;;;;;;;16.10;6.75;;;7.20;99.90;;;;;;5016507;28;20034;-31
2022/03/18 07:32:08;;;;;;;25.00;7.35;;;7.30;99.90;;;;;;5016865;28;20022;-33
2022/03/18 07:34:33;;;;;;;15.90;6.22;;;7.30;99.90;;;;;;5016887;28;20075;-29
2022/03/18 07:36:59;;;;;;;14.35;7.57;;;7.40;99.90;;;;;;5016829;28;20025;-30
2022/03/18 07:39:25;;;;;;;17.05;6.50;;;7.60;99.90;;;;;;5016396;28;20042;-33
2022/03/18 07:41:50;;;;;;;13.13;7.03;;;7.60;99.90;;;;;;4999197;28;20025;-49
2022/03/18 07:44:16;;;;;;;22.80;6.32;;;7.70;99.90;;;;;;5016716;28;20101;-38
2022/03/18 07:46:42;;;;;;;15.10;7.35;;;7.90;99.90;;;;;;4998942;28;20092;-31
2022/03/18 07:49:07;;;;;;;14.27;6.63;;;8.00;99.90;;;;;;5016379;28;20104;-36
2022/03/18 07:51:33;;;;;;;17.35;6.43;;;8.10;99.90;;;;;;4998134;28;20076;-36
2022/03/18 07:53:58;;;;;;;14.57;6.40;;;8.20;99.90;;;;;;5016591;28;20029;-33
2022/03/18 07:56:24;;;;;;;8.10;5.88;;;8.30;99.90;;;;;;5016326;28;20109;-34
2022/03/18 07:58:50;;;;;;;15.20;6.40;;;8.40;99.90;;;;;;5016693;28;20105;-31
2022/03/18 08:01:16;;;;;;;16.08;8.73;;;8.60;99.90;;;;;;5016392;28;20022;-34
2022/03/18 08:03:41;;;;;;;11.55;4.95;;;8.70;99.90;;;;;;5016208;28;20046;-34
2022/03/18 08:06:07;;;;;;;18.65;5.50;;;8.80;99.90;;;;;;5016129;28;20548;-49
2022/03/18 08:08:33;;;;;;;17.13;5.18;;;8.90;99.90;;;;;;5016244;28;20030;-39
2022/03/18 08:10:59;;;;;;;15.60;5.90;;;9.00;99.90;;;;;;5016297;28;20104;-39
2022/03/18 08:13:25;;;;;;;13.07;4.65;;;9.20;99.90;;;;;;5016270;28;20478;-41
2022/03/18 08:15:51;;;;;;;13.18;4.22;;;9.20;99.90;;;;;;5016018;28;20025;-40
2022/03/18 08:18:19;;;;;;;12.30;4.97;;;9.40;99.90;;;;;;5016159;28;20148;-40
2022/03/18 08:20:48;;;;;;;10.32;5.35;;;9.50;99.90;;;;;;5013007;28;20033;-41
2022/03/18 08:23:14;;;;;;;6.50;3.90;;;9.60;99.90;;;;;;5011066;28;20497;-41
2022/03/18 08:25:41;;;;;;;9.70;4.47;;;9.70;99.90;;;;;;5013975;28;20037;-40
2022/03/18 08:28:07;;;;;;;9.68;4.60;;;9.80;99.90;;;;;;5014541;28;20030;-41
2022/03/18 08:30:36;;;;;;;12.95;4.95;;;9.90;99.90;;;;;;5013940;28;20072;-40
2022/03/18 08:33:02;;;;;;;13.13;4.30;;;10.10;99.90;;;;;;5013818;28;20382;-39
2022/03/18 08:35:28;;;;;;;18.92;4.80;;;10.20;99.90;;;;;;5015198;28;20512;-39
2022/03/18 08:37:57;;;;;;;8.70;4.22;;;10.30;99.90;;;;;;5015544;28;20037;-36
2022/03/18 08:40:26;;;;;;;11.98;4.20;;;10.30;99.90;;;;;;5014954;28;20532;-35
2022/03/18 08:42:52;;;;;;;12.45;5.50;;;10.50;99.90;;;;;;5014906;28;20497;-35
2022/03/18 08:45:18;;;;;;;12.15;4.60;;;10.60;99.90;;;;;;5015120;28;20164;-33
2022/03/18 08:47:45;;;;;;;9.23;4.38;;;10.70;99.90;;;;;;4995565;28;20497;-40
2022/03/18 08:50:12;;;;;;;9.32;4.60;;;10.80;99.90;;;;;;5015037;28;20100;-41
2022/03/18 08:52:37;;;;;;;13.00;3.88;;;10.90;99.90;;;;;;5014995;28;20091;-38
2022/03/18 08:55:04;;;;;;;11.27;4.72;;;11.00;99.90;;;;;;5014032;28;20018;-40
2022/03/18 08:57:33;;;;;;;15.05;3.45;;;11.20;99.90;;;;;;5010331;28;20021;-36
2022/03/18 08:59:58;;;;;;;12.63;3.70;;;11.30;99.90;;;;;;5010184;28;20057;-40
2022/03/18 09:02:24;;;;;;;14.70;3.92;;;11.40;99.90;;;;;;5009642;28;20731;-40
2022/03/18 09:04:51;;;;;;;10.15;2.80;;;11.60;99.90;;;;;;4995524;28;20030;-39
2022/03/18 09:07:19;;;;;;;10.35;3.00;;;11.60;99.90;;;;;;5011634;28;20533;-40
2022/03/18 09:09:45;;;;;;;15.00;3.55;;;11.70;99.90;;;;;;5014838;28;20030;-48
2022/03/18 09:12:11;;;;;;;9.15;2.88;;;11.80;99.90;;;;;;5012051;28;20392;-38
2022/03/18 09:14:36;;;;;;;9.38;3.58;;;12.00;99.90;;;;;;5013777;28;20037;-40
2022/03/18 09:17:02;;;;;;;11.05;4.45;;;12.10;99.90;;;;;;5011177;28;20473;-41
2022/03/18 09:19:28;;;;;;;15.45;2.88;;;12.20;99.90;;;;;;4995022;28;20534;-39
2022/03/18 09:21:54;;;;;;;5.38;3.30;;;12.10;99.90;;;;;;5011745;28;20024;-39
2022/03/18 09:24:19;;;;;;;14.13;3.67;;;12.10;99.90;;;;;;5008008;28;20018;-34
2022/03/18 09:26:45;;;;;;;11.48;3.45;;;12.20;99.90;;;;;;5012569;28;20037;-39
2022/03/18 09:29:12;;;;;;;9.63;3.95;;;12.30;99.90;;;;;;5010691;28;20022;-40
2022/03/18 09:31:37;;;;;;;8.27;2.88;;;12.50;99.90;;;;;;5010385;28;20072;-40
2022/03/18 09:34:03;;;;;;;6.80;3.05;;;12.70;99.90;;;;;;5012475;28;20033;-40
2022/03/18 09:36:31;;;;;;;9.73;3.40;;;12.70;99.90;;;;;;5014045;28;20105;-39
2022/03/18 09:38:56;;;;;;;12.55;4.20;;;12.80;99.90;;;;;;4995549;28;20473;-40
2022/03/18 09:41:22;;;;;;;6.15;3.53;;;12.80;99.90;;;;;;5012847;28;20014;-42
2022/03/18 09:43:48;;;;;;;13.90;3.78;;;12.80;99.90;;;;;;5008902;28;20021;-40
2022/03/18 09:46:16;;;;;;;11.98;3.50;;;12.80;99.90;;;;;;5013268;28;20022;-40
2022/03/18 09:48:43;;;;;;;9.38;3.88;;;12.90;99.90;;;;;;5013855;28;20022;-40
2022/03/18 09:51:09;;;;;;;5.95;3.67;;;13.00;99.90;;;;;;5012586;28;20584;-53
2022/03/18 09:53:35;;;;;;;12.38;4.20;;;13.00;99.90;;;;;;5013787;28;20257;-60
2022/03/18 09:56:02;;;;;;;8.48;3.63;;;13.10;99.90;;;;;;5013544;28;20497;-39
2022/03/18 09:58:29;;;;;;;9.30;3.90;;;13.20;99.90;;;;;;5013750;28;20022;-39
2022/03/18 10:01:01;;;;;;;17.85;4.45;;;13.10;99.90;;;;;;5013707;28;20096;-39
2022/03/18 10:03:41;;;;;;;11.65;3.58;;;13.10;99.90;;;;;;5013311;28;20444;-39
2022/03/18 10:06:07;;;;;;;6.97;4.28;;;13.10;99.90;;;;;;4997691;28;20448;-40
2022/03/18 10:08:38;;;;;;;13.30;4.22;;;13.10;99.90;;;;;;5013136;28;20105;-41
2022/03/18 10:11:21;;;;;;;15.02;4.18;;;13.30;99.90;;;;;;5013495;28;20030;-41
2022/03/18 10:13:52;;;;;;;12.90;4.63;;;13.50;99.90;;;;;;5012642;28;20030;-40
2022/03/18 10:16:36;;;;;;;9.85;3.67;;;13.60;99.90;;;;;;4994995;28;20481;-41
2022/03/18 10:19:14;;;;;;;13.95;4.53;;;13.70;99.90;;;;;;5013162;28;20030;-41
2022/03/18 10:21:58;;;;;;;8.98;3.80;;;13.80;99.90;;;;;;5013668;28;20029;-40
2022/03/18 10:24:27;;;;;;;8.18;3.88;;;13.90;99.90;;;;;;5012991;28;20030;-41
2022/03/18 10:27:07;;;;;;;9.45;3.67;;;14.10;99.90;;;;;;5013502;28;20025;-41
2022/03/18 10:29:40;;;;;;;8.27;3.17;;;14.20;99.90;;;;;;5012835;28;20036;-41
2022/03/18 10:32:06;;;;;;;9.35;3.15;;;14.20;99.90;;;;;;5013134;28;20116;-38
2022/03/18 10:37:25;;;;;;;6.18;3.20;;;14.50;99.90;;;;;;5004926;28;20041;-38
2022/03/18 10:39:58;;;;;;;8.10;2.57;;;14.40;99.90;;;;;;4995400;28;20033;-39
2022/03/18 10:42:24;;;;;;;8.30;4.00;;;14.50;99.90;;;;;;5013575;28;20272;-39
2022/03/18 10:44:54;;;;;;;4.95;2.45;;;14.70;99.90;;;;;;5013065;28;20025;-39
2022/03/18 10:47:42;;;;;;;12.25;2.92;;;14.80;99.90;;;;;;5013348;28;20470;-40
2022/03/18 10:50:21;;;;;;;;;;;14.90;99.90;;;;;;5007702;28;20026;-38
2022/03/18 10:52:50;;;;;;;5.45;3.33;;;14.90;99.90;;;;;;5013136;28;19905;-38
2022/03/18 10:58:10;;;;;;;8.95;2.20;;;15.00;99.90;;;;;;5013036;28;20049;-39
2022/03/18 11:00:43;;;;;;;5.38;2.17;;;15.10;99.90;;;;;;5012809;28;20072;-39
2022/03/18 11:03:09;;;;;;;4.43;2.13;;;15.10;99.90;;;;;;5011897;28;20038;-39
2022/03/18 11:05:37;;;;;;;7.60;2.50;;;15.10;99.90;;;;;;5012523;28;20469;-38
2022/03/18 11:08:05;;;;;;;12.00;3.05;;;15.20;99.90;;;;;;5008863;28;20018;-38
2022/03/18 11:13:22;;;;;;;7.60;2.08;;;15.40;99.90;;;;;;5013506;28;20068;-39
2022/03/18 11:15:49;;;;;;;6.47;2.92;;;15.50;99.90;;;;;;5013317;28;20026;-40
2022/03/18 11:18:15;;;;;;;10.93;2.75;;;15.40;99.90;;;;;;4994874;28;20099;-39
2022/03/18 11:20:43;;;;;;;11.63;3.60;;;15.40;99.90;;;;;;5012492;28;20022;-38
2022/03/18 11:23:22;;;;;;;11.75;2.88;;;15.40;99.90;;;;;;5007484;28;20037;-41
2022/03/18 11:25:50;;;;;;;6.43;2.42;;;15.20;99.90;;;;;;5006058;28;20133;-37
2022/03/18 11:28:19;;;;;;;7.55;2.67;;;15.40;99.90;;;;;;5004579;28;20029;-38
2022/03/18 11:30:47;;;;;;;3.63;2.25;;;15.40;99.90;;;;;;5004034;28;20045;-38
2022/03/18 11:33:15;;;;;;;;;;;15.50;99.90;;;;;;5005774;28;20499;-40
2022/03/18 11:35:50;;;;;;;5.70;3.03;;;15.70;99.90;;;;;;5006892;28;19909;-67
2022/03/18 11:38:17;;;;;;;5.75;2.15;;;15.80;99.90;;;;;;5005972;28;20117;-47
2022/03/18 11:40:58;;;;;;;11.93;2.88;;;16.00;99.90;;;;;;5006190;28;20513;-38
2022/03/18 11:43:42;;;;;;;6.72;2.58;;;16.00;99.90;;;;;;5005080;28;20021;-38
2022/03/18 11:46:13;;;;;;;4.22;2.65;;;16.10;99.90;;;;;;5010724;28;20488;-39
2022/03/18 11:49:05;;;;;;;13.85;3.10;;;16.10;99.90;;;;;;5006116;28;20084;-39
2022/03/18 11:51:31;;;;;;;6.28;2.83;;;16.20;99.90;;;;;;5004423;28;20034;-39
2022/03/18 11:53:59;;;;;;;5.97;2.53;;;16.30;99.90;;;;;;5007582;28;20034;-40
2022/03/18 11:56:44;;;;;;;8.45;2.45;;;16.50;99.90;;;;;;5008076;28;20389;-39
2022/03/18 11:59:24;;;;;;;12.23;2.60;;;16.70;99.60;;;;;;5003192;28;20149;-36
2022/03/18 12:01:57;;;;;;;6.07;2.35;;;16.90;99.10;;;;;;5006377;28;20057;-36
2022/03/18 12:04:45;;;;;;;9.27;2.72;;;16.80;99.70;;;;;;5010460;28;20519;-39
2022/03/18 12:07:28;;;;;;;7.90;2.90;;;16.80;99.60;;;;;;5011314;28;20034;-38
2022/03/18 12:10:02;;;;;;;4.43;2.28;;;16.90;99.30;;;;;;5010886;28;20049;-39
2022/03/18 12:12:48;;;;;;;5.13;1.83;;;16.90;99.30;;;;;;5011596;28;20462;-34
2022/03/18 12:15:19;;;;;;;6.07;2.47;;;16.90;98.30;;;;;;5013968;28;20466;-33
2022/03/18 12:17:53;;;;;;;1.60;1.20;;;16.80;98.30;;;;;;5013746;28;20382;-35
2022/03/18 12:20:19;;;;;;;5.60;1.27;;;16.90;97.90;;;;;;5015275;28;20022;-30
2022/03/18 12:22:45;;;;;;;3.47;1.88;;;16.90;97.60;;;;;;5010134;28;20033;-35
2022/03/18 12:25:11;;;;;;;10.50;2.38;;;17.10;97.90;;;;;;5010043;28;20105;-31
2022/03/18 12:27:39;;;;;;;5.38;1.40;;;17.10;97.70;;;;;;5010058;28;20445;-34
2022/03/18 12:30:11;;;;;;;5.65;1.30;;;17.20;97.40;;;;;;5011758;28;20058;-30
2022/03/18 12:32:50;;;;;;;6.93;1.65;;;17.10;96.60;;;;;;5014193;28;20505;-31
2022/03/18 12:35:17;;;;;;;4.43;1.58;;;17.00;96.70;;;;;;5011053;28;20030;-36
2022/03/18 12:37:46;;;;;;;5.82;1.83;;;17.00;96.70;;;;;;5008904;28;20386;-37
2022/03/18 12:40:14;;;;;;;7.93;2.25;;;17.00;97.60;;;;;;5007161;28;20025;-39
2022/03/18 12:42:54;;;;;;;2.33;1.60;;;17.00;97.00;;;;;;5008604;28;20026;-34
2022/03/18 12:45:32;;;;;;;3.33;1.20;;;16.80;97.20;;;;;;5006817;28;20033;-39
2022/03/18 12:48:00;;;;;;;4.65;2.17;;;16.80;97.50;;;;;;5006708;28;20038;-36
2022/03/18 12:50:28;;;;;;;4.68;1.63;;;16.80;97.30;;;;;;4990127;28;20014;-34
2022/03/18 12:52:55;;;;;;;7.07;2.10;;;16.90;96.90;;;;;;5008685;28;20030;-32
2022/03/18 12:55:22;;;;;;;7.28;2.13;;;17.10;97.00;;;;;;4994909;28;20038;-36
2022/03/18 12:57:48;;;;;;;;;;;17.10;97.00;;;;;;5012985;28;20497;-36
2022/03/18 13:00:17;;;;;;;4.03;1.90;;;17.10;97.20;;;;;;5013907;28;19956;-39
2022/03/18 13:02:44;;;;;;;3.55;1.70;;;17.20;97.00;;;;;;5010807;28;20493;-34
2022/03/18 13:05:15;;;;;;;5.55;1.88;;;17.10;96.80;;;;;;5008217;28;20164;-33
2022/03/18 13:07:40;;;;;;;6.93;1.75;;;17.20;96.50;;;;;;5005558;28;20108;-40
2022/03/18 13:10:06;;;;;;;3.92;1.60;;;17.40;96.20;;;;;;4990352;28;20466;-40
2022/03/18 13:12:36;;;;;;;3.80;1.95;;;17.50;96.70;;;;;;5006793;28;20124;-40
2022/03/18 13:15:16;;;;;;;11.93;2.97;;;17.30;97.30;;;;;;5011999;28;20026;-43
2022/03/18 13:17:45;;;;;;;6.72;1.65;;;17.30;97.20;;;;;;5008196;28;20149;-40
2022/03/18 13:20:29;;;;;;;3.47;1.73;;;17.70;96.50;;;;;;5011705;28;20033;-41
2022/03/18 13:22:57;;;;;;;5.80;2.30;;;17.70;96.70;;;;;;5004225;28;20048;-39